Ship Status Report: callsign AC7427

sailwx.info

Track history (hours):
 
Tides and Currents Weather Stations Pressure Air Temp Water Temp Dewpoint Dewpoint Depression Visibility Wind Speed Wind Dir Waves Ship Positions

Callsign AC7427 (name unknown)

Last reported at 2018-Jun-01 16:03 UTC. Time now 2018-Jun-22 23:05 UTC.
Position N 14°27' W 060°58'.
Warning: this ship's position is 21 days out of date.

AWS

Date/timePositionNaut miles runAvg speedWind from/ knotsBaromVisibWave heightAir tempDewpointWater temp
2018-Jun-01 16:03N 14°27' W 060°58'0 7.5
2018-Jun-01 16:00N 14°27' W 060°57'4 7.6
2018-Jun-01 15:30N 14°27' W 060°54'2 3.3
2018-Jun-01 14:54N 14°28' W 060°52'0 0.0
2018-Jun-01 14:30N 14°28' W 060°52'0 0.0
2018-Jun-01 13:59N 14°28' W 060°52'0 0.0
2018-Jun-01 13:30N 14°28' W 060°52'0 0.0
2018-May-31 19:51N 14°28' W 060°52'0 0.0
2018-May-31 19:30N 14°28' W 060°52'0 0.5
2018-May-31 18:59N 14°28' W 060°52'2 4.3
2018-May-31 18:30N 14°27' W 060°54'0 0.0
2018-May-31 18:00N 14°27' W 060°54'0 0.0
2018-May-31 17:30N 14°27' W 060°54'0 0.0
2018-May-31 17:00N 14°27' W 060°54'0 0.0
2018-May-31 16:30N 14°27' W 060°54'0 0.0
2018-May-31 16:00N 14°27' W 060°54'0 0.0
2018-May-31 15:30N 14°27' W 060°54'1 2.8
2018-May-31 15:00N 14°27' W 060°56'  
Track history (hours):
 
Tides and Currents Weather Stations Pressure Air Temp Water Temp Dewpoint Dewpoint Depression Visibility Wind Speed Wind Dir Waves Ship Positions

Callsign AC7427 (name unknown)

Last reported at 2018-Jun-01 16:03 UTC. Time now 2018-Jun-22 23:05 UTC.
Position N 14°27' W 060°58'.
Warning: this ship's position is 21 days out of date.

AWS

Date/timePositionNaut miles runAvg speedWind from/ knotsBaromVisibWave heightAir tempDewpointWater temp
2018-Jun-01 16:03N 14°27' W 060°58'0 7.5
2018-Jun-01 16:00N 14°27' W 060°57'4 7.6
2018-Jun-01 15:30N 14°27' W 060°54'2 3.3
2018-Jun-01 14:54N 14°28' W 060°52'0 0.0
2018-Jun-01 14:30N 14°28' W 060°52'0 0.0
2018-Jun-01 13:59N 14°28' W 060°52'0 0.0
2018-Jun-01 13:30N 14°28' W 060°52'0 0.0
2018-May-31 19:51N 14°28' W 060°52'0 0.0
2018-May-31 19:30N 14°28' W 060°52'0 0.5
2018-May-31 18:59N 14°28' W 060°52'2 4.3
2018-May-31 18:30N 14°27' W 060°54'0 0.0
2018-May-31 18:00N 14°27' W 060°54'0 0.0
2018-May-31 17:30N 14°27' W 060°54'0 0.0
2018-May-31 17:00N 14°27' W 060°54'0 0.0
2018-May-31 16:30N 14°27' W 060°54'0 0.0
2018-May-31 16:00N 14°27' W 060°54'0 0.0
2018-May-31 15:30N 14°27' W 060°54'1 2.8
2018-May-31 15:00N 14°27' W 060°56'  

Dump ship's entire track history